Time Updated : 11:51:00_PM

 Menu       Home   X °F Data Status   ✓  

Select another period ( hide this area )

Units Period Custom range Directly to
Metric English Both
Daily Weekly Monthly Yearly
use both date-selectors for a custom range
previous Day
With this date
Daily Summary for Monday 15 April 2024
Time Temp. ( °F ) Dew pt. ( °F ) Wind ( mph ) From Gust ( mph ) Pressure ( in ) Humid.( % ) Rainrate ( in )
High56.7 47.7 44.7 South ( 3699/8164 ) 55.9 29.95 95 68.56
Average48.4 39.4 17.7 South #134/286 23.7 29.70 74 70.92
Low41.2 31.5 5.0   5.6 29.55 41 -
Daily Tabular details for Monday 15 April 2024
Time Temp. ( °F ) Dew pt. ( °F ) Wind ( mph ) From Gust ( mph ) Pressure ( in ) Humid.( % ) Rainrate ( in )
00:04 43.9 41.4 5.0 SSE 6.8 29.95 91 -
00:09 43.9 41.4 5.6 SSE 6.2 29.95 91 -
00:14 44.1 41.5 5.0 South 6.2 29.94 91 -
00:19 44.1 41.5 5.6 South 6.2 29.95 91 -
00:24 43.9 41.4 7.5 South 7.5 29.94 91 -
00:29 43.9 41.4 5.6 SSE 8.1 29.94 91 -
00:34 43.9 41.4 5.6 South 6.2 29.94 91 -
00:39 43.9 41.7 6.2 South 6.2 29.95 92 -
00:44 43.9 41.7 6.2 SSE 6.2 29.94 92 -
00:49 43.9 41.7 6.2 SSE 7.5 29.94 92 -
00:54 43.7 41.5 6.2 SSE 7.5 29.94 92 -
00:59 43.7 41.5 5.6 South 6.2 29.94 92 -
01:04 43.5 41.4 5.6 South 6.2 29.94 92 -
01:09 43.5 41.4 5.6 SSE 7.5 29.94 92 -
01:14 43.5 41.4 6.2 SSE 7.5 29.93 92 -
01:19 43.5 41.4 5.6 SSE 6.8 29.93 92 -
01:24 43.5 41.7 5.0 SSE 6.2 29.94 93 -
01:29 43.3 41.5 6.2 SSE 6.2 29.93 93 -
01:34 43.3 41.5 5.6 South 6.2 29.92 93 -
01:39 43.5 41.7 6.2 SSE 6.2 29.92 93 -
01:44 43.5 41.7 6.2 South 6.8 29.92 93 -
01:49 43.5 41.7 6.2 SSE 6.2 29.92 93 -
01:54 43.3 41.5 5.0 SSE 6.2 29.91 93 -
01:59 43.3 41.5 9.3 SSE 9.9 29.91 93 -
02:04 43.2 41.4 5.6 SSE 9.9 29.91 93 -
02:09 43.2 41.4 5.6 SSE 7.5 29.91 93 -
02:14 43.0 41.4 5.6 SSE 7.5 29.90 94 -
02:19 43.0 41.4 5.6 SSE 6.2 29.90 94 -
02:24 42.8 41.2 5.6 SSE 5.6 29.90 94 -
02:29 42.6 41.0 5.6 SSE 5.6 29.89 94 -
02:34 42.6 41.0 5.0 SSE 5.6 29.89 94 -
02:39 42.6 41.0 6.2 SSE 7.5 29.89 94 -
02:44 42.6 41.0 5.6 SSE 7.5 29.89 94 -
02:49 42.4 40.8 5.6 SSE 8.1 29.89 94 -
02:54 42.4 40.8 5.6 SSE 6.8 29.88 94 -
02:59 42.3 40.6 6.2 South 6.8 29.88 94 -
03:04 42.3 40.6 6.2 SSE 7.5 29.88 94 -
03:09 42.1 40.5 5.6 SSE 6.8 29.88 94 -
03:14 41.9 40.3 6.2 SSE 6.8 29.88 94 -
03:19 41.9 40.3 7.5 SSE 7.5 29.88 94 -
03:24 41.9 40.3 5.6 SSE 7.5 29.87 94 -
03:29 41.9 40.6 6.8 SSE 7.5 29.87 95 -
03:34 41.9 40.6 5.6 South 6.8 29.87 95 -
03:39 41.9 40.6 6.2 SSE 6.2 29.87 95 -
03:44 41.7 40.5 6.8 SSE 7.5 29.86 95 -
03:49 41.7 40.5 6.2 South 8.1 29.87 95 -
03:54 41.5 40.3 6.2 South 6.8 29.86 95 -
03:59 41.4 40.1 5.6 SSE 6.2 29.86 95 -
04:04 41.4 40.1 5.6 SSE 6.2 29.86 95 -
04:09 41.4 40.1 5.6 SSE 7.5 29.85 95 -
04:14 41.2 39.9 5.6 SSE 6.8 29.85 95 -
04:19 41.2 39.9 5.0 SSE 5.6 29.85 95 -
04:24 41.4 40.1 6.2 SSE 6.8 29.84 95 -
04:29 41.5 40.3 5.6 SSE 6.2 29.84 95 -
04:34 41.5 40.3 5.6 SSE 7.5 29.83 95 -
04:39 41.7 40.5 6.2 SSE 7.5 29.83 95 -
04:44 41.5 40.3 6.2 SSE 6.2 29.83 95 -
04:49 41.5 40.3 6.2 SSE 6.8 29.83 95 -
04:54 41.5 40.3 7.5 SSE 8.1 29.83 95 -
04:59 41.4 40.1 6.8 SSE 7.5 29.83 95 -
05:04 41.7 40.5 7.5 SSE 9.3 29.83 95 -
05:09 41.7 40.5 6.2 South 8.1 29.82 95 -
05:14 41.7 40.5 5.0 South 7.5 29.82 95 -
05:19 41.5 40.3 6.2 SSE 6.8 29.81 95 -
05:24 41.4 40.1 5.6 SSE 5.6 29.81 95 -
05:29 41.2 39.9 5.6 SSE 5.6 29.80 95 -
05:34 41.5 40.3 5.6 SSE 6.2 29.80 95 -
05:39 41.5 40.3 8.7 SSE 9.3 29.79 95 -
05:44 41.5 40.3 5.0 SSE 6.2 29.80 95 -
05:49 41.9 40.6 8.1 SSE 8.7 29.79 95 -
05:54 42.3 41.0 8.1 South 8.7 29.79 95 -
05:59 42.8 41.5 6.8 SSE 8.7 29.79 95 -
06:04 43.3 42.1 10.6 South 13.0 29.78 95 -
06:09 45.7 44.1 18.0 SSW 23.0 29.78 95 -
06:14 46.9 45.0 18.6 SSW 26.1 29.77 94 -
06:19 48.0 45.5 27.3 South 32.3 29.77 92 -
06:24 48.6 45.5 28.0 SSW 37.3 29.76 90 -
06:29 49.1 45.7 29.2 SSW 39.1 29.76 88 -
06:34 49.1 45.5 28.6 SSW 42.9 29.76 87 -
06:39 49.1 45.5 24.2 SSW 34.2 29.75 87 -
06:44 49.1 45.5 26.1 SSW 34.8 29.75 87 -
06:49 48.9 45.3 26.7 SSW 31.7 29.75 87 -
06:54 49.1 45.5 23.6 SSW 33.6 29.74 87 -
06:59 49.5 45.9 24.9 SSW 33.6 29.74 87 -
07:04 49.6 46.0 23.6 SSW 31.1 29.74 87 -
07:09 49.8 46.2 27.3 SSW 34.2 29.73 87 -
07:14 49.8 46.2 26.1 South 41.6 29.73 87 -
07:19 50.0 46.2 31.7 SSW 43.5 29.72 87 -
07:24 50.2 46.4 34.2 South 41.6 29.72 87 -
07:29 50.4 46.6 37.3 SSW 54.1 29.72 87 -
07:34 50.4 46.6 28.0 SSW 54.1 29.71 88 -
07:39 50.0 46.9 34.2 South 50.9 29.71 89 -
07:44 49.8 46.9 29.8 SSW 50.9 29.70 90 -
07:49 50.0 46.9 31.7 SSW 39.1 29.70 90 -
07:54 50.4 46.9 37.9 SSW 43.5 29.70 89 -
07:59 50.5 47.1 29.8 SSW 43.5 29.69 88 -
08:04 50.7 47.3 32.3 SSW 43.5 29.69 88 -
08:09 50.9 47.5 36.7 SSW 44.7 29.68 88 -
08:14 50.7 47.7 40.4 SSW 46.6 29.68 89 -
08:19 50.7 47.3 32.9 SSW 50.3 29.68 88 -
08:24 50.7 47.3 31.7 SSW 37.9 29.68 88 -
08:29 50.7 47.7 32.9 SSW 45.4 29.67 89 -
08:34 50.5 47.1 30.4 South 43.5 29.66 88 -
08:39 50.5 47.1 34.2 South 41.0 29.66 88 -
08:44 50.5 47.3 35.4 SSW 49.1 29.66 89 -
08:49 50.4 47.3 41.0 SSW 46.6 29.65 89 -
08:54 50.4 47.3 39.8 South 44.7 29.65 89 -
08:59 50.4 46.9 37.9 SSW 49.1 29.64 88 -
09:04 50.5 46.8 35.4 South 49.1 29.63 88 -
09:09 50.7 47.3 32.3 SSW 44.1 29.63 88 -
09:14 51.1 47.3 33.6 SSW 37.9 29.63 88 -
09:19 51.1 47.3 32.3 SSW 38.5 29.62 87 -
09:24 51.1 46.4 34.8 SSW 37.3 29.63 85 -
09:29 51.8 46.6 28.0 SSW 49.1 29.62 83 -
09:34 52.2 46.9 37.9 SSW 41.0 29.61 82 -
09:39 52.2 47.1 36.0 SSW 47.8 29.61 83 -
09:44 52.2 46.9 37.9 SSW 41.6 29.61 83 -
09:49 52.3 46.8 30.4 SSW 39.1 29.60 81 -
09:54 52.5 46.6 28.0 SSW 41.0 29.60 80 -
09:58 52.3 46.2 32.9 South 41.0 29.60 80 -
10:04 52.5 45.9 22.4 South 40.4 29.59 78 -
10:09 52.5 45.9 34.2 SSW 43.5 29.59 78 -
10:14 53.1 46.0 31.1 SSW 42.2 29.58 77 -
10:19 53.1 46.2 44.7 SSW 50.9 29.58 78 -
10:24 53.1 46.8 32.9 South 44.7 29.58 79 -
10:29 53.1 47.1 33.6 SSW 55.9 29.57 82 -
10:34 52.2 47.1 32.3 SSW 55.9 29.57 83 -
10:39 52.3 47.1 37.3 SSW 49.7 29.57 82 -
10:44 52.5 46.9 33.6 SSW 44.7 29.57 81 -
10:49 52.2 46.9 37.9 SSW 47.2 29.55 82 -
10:54 52.2 46.9 32.9 SSW 47.2 29.55 82 -
10:59 52.2 46.9 34.2 SSW 37.9 29.55 82 -
11:04 52.2 47.1 42.2 SSW 45.4 29.55 83 -
11:09 51.8 47.3 39.1 SSW 51.6 29.55 86 9.42
11:14 51.3 47.5 23.6 SSW 51.6 29.57 90 68.56
11:19 48.2 45.3 20.5 South 36.7 29.57 91 68.56
11:24 46.2 43.7 18.0 South 23.6 29.58 91 52.05
11:29 45.5 43.0 16.2 South 23.0 29.57 91 9.42
11:34 45.5 43.0 16.2 South 28.0 29.56 91 4.69
11:39 45.7 43.2 13.7 South 17.4 29.56 91 -
11:44 45.7 43.2 14.3 South 19.3 29.57 91 -
11:49 45.5 42.8 16.2 South 19.3 29.57 90 -
11:54 45.7 42.6 13.0 South 15.5 29.57 90 -
11:59 45.9 42.8 14.3 SSW 16.8 29.57 89 -
12:04 45.9 42.3 15.5 South 18.6 29.57 87 -
12:09 46.8 42.8 13.0 South 15.5 29.57 87 -
12:14 46.9 43.0 8.1 South 15.5 29.57 86 -
12:19 46.9 43.0 12.4 South 18.0 29.57 86 -
12:24 47.8 43.5 16.2 SSW 18.0 29.57 86 -
12:29 48.4 44.1 13.7 SSW 18.6 29.57 85 -
12:34 48.4 43.9 22.4 SSW 23.0 29.57 84 -
12:39 48.6 43.9 13.0 SSW 22.4 29.57 84 -
12:44 49.1 44.1 16.2 SSW 19.9 29.57 83 -
12:49 50.9 45.1 16.2 South 20.5 29.57 83 -
12:54 50.9 44.6 13.0 South 21.1 29.57 79 -
12:59 51.3 44.8 19.3 South 22.4 29.57 79 -
13:04 51.3 44.2 14.3 SSW 21.1 29.57 79 -
13:09 52.2 43.9 18.6 SSW 28.0 29.57 76 -
13:14 52.3 43.5 21.1 SSW 28.0 29.57 72 -
13:19 52.9 43.0 23.6 SSW 29.2 29.57 72 -
13:24 52.9 41.0 19.9 South 29.2 29.58 65 -
13:29 52.9 40.3 21.1 South 24.2 29.58 62 -
13:34 53.8 40.3 13.7 South 20.5 29.58 63 -
13:39 53.8 37.9 18.0 South 26.7 29.58 56 -
13:44 52.9 36.3 23.0 SSE 29.8 29.58 54 -
13:49 53.4 35.8 24.2 SSE 28.0 29.58 51 -
13:54 54.0 36.1 23.0 SSE 31.1 29.59 51 -
13:59 54.0 34.9 23.0 SSE 33.6 29.59 49 -
14:04 54.0 33.4 23.6 SSE 36.0 29.59 47 -
14:09 54.3 35.1 28.6 South 37.3 29.58 49 -
14:14 54.0 34.3 21.1 SSE 37.3 29.59 48 -
14:19 54.9 36.1 17.4 South 28.0 29.59 50 -
14:24 55.0 34.7 23.0 South 31.1 29.59 46 -
14:29 55.0 34.2 25.5 SSW 34.2 29.60 45 -
14:34 55.4 34.5 19.9 South 32.9 29.60 46 -
14:39 55.0 34.9 22.4 South 28.6 29.60 47 -
14:44 55.2 34.7 26.1 South 29.2 29.60 46 -
14:49 54.9 34.7 22.4 South 28.6 29.61 47 -
14:54 55.2 33.8 29.8 South 36.7 29.60 45 -
14:59 54.7 33.3 24.9 SSW 33.6 29.61 44 -
15:04 55.2 32.9 21.1 SSE 33.6 29.61 43 -
15:09 55.4 32.0 22.4 SSE 41.6 29.61 44 -
15:14 54.7 32.5 21.1 SSE 26.1 29.61 43 -
15:19 55.9 33.6 29.8 South 33.6 29.61 44 -
15:24 55.8 33.1 18.0 SSE 33.6 29.61 43 -
15:29 56.7 34.0 20.5 South 26.7 29.61 43 -
15:34 56.1 32.4 23.0 South 26.1 29.61 43 -
15:39 54.7 31.5 21.7 SSE 27.3 29.61 42 -
15:44 55.2 32.9 16.2 South 23.0 29.61 43 -
15:49 56.1 33.1 22.4 South 31.1 29.62 42 -
15:54 54.3 32.0 24.9 South 32.3 29.62 44 -
15:59 54.3 32.0 16.8 South 27.3 29.62 43 -
16:04 55.2 32.9 18.6 SSW 26.7 29.62 43 -
16:09 55.9 33.3 16.2 South 26.7 29.62 43 -
16:14 54.5 32.5 16.8 SSE 26.7 29.62 44 -
16:19 55.9 33.8 17.4 South 23.0 29.62 44 -
16:24 55.4 33.3 19.9 South 25.5 29.62 43 -
16:29 55.9 33.1 22.4 South 32.9 29.62 42 -
16:34 55.8 33.4 24.2 South 34.2 29.63 43 -
16:39 55.0 32.2 16.2 South 34.2 29.63 42 -
16:44 54.9 32.2 17.4 South 24.9 29.62 43 -
16:49 55.6 32.2 19.9 South 35.4 29.63 42 -
16:54 55.8 32.0 18.6 South 35.4 29.63 41 -
16:59 55.4 32.0 24.2 South 26.7 29.62 41 -
17:04 55.2 32.0 16.8 South 24.9 29.62 41 -
17:09 55.4 32.7 23.0 South 28.6 29.62 42 -
17:14 55.4 32.7 21.1 South 25.5 29.62 43 -
17:19 55.0 32.0 19.9 South 23.6 29.62 42 -
17:24 54.7 32.0 15.5 South 23.0 29.62 43 -
17:29 54.5 32.7 20.5 South 25.5 29.62 44 -
17:34 53.6 32.4 21.7 South 29.8 29.63 45 -
17:39 53.4 32.7 17.4 South 29.8 29.62 45 -
17:44 53.6 32.7 18.6 South 29.8 29.62 45 -
17:49 53.6 32.4 21.7 South 30.4 29.62 45 -
17:54 53.6 33.4 13.0 South 21.7 29.62 46 -
17:59 53.4 33.3 19.3 SSW 25.5 29.63 46 -
18:04 53.8 33.4 18.6 South 25.5 29.63 46 -
18:09 53.4 36.0 24.2 SE 38.5 29.64 53 -
18:14 51.6 35.6 19.9 East 28.6 29.65 55 -
18:19 50.5 35.4 18.0 ESE 21.7 29.64 56 -
18:24 50.4 34.3 15.5 SE 23.6 29.64 54 -
18:29 50.2 34.7 13.7 SE 23.6 29.64 55 -
18:34 50.2 35.1 11.2 SE 14.9 29.65 56 -
18:39 50.4 35.6 14.3 SSE 19.9 29.65 57 -
18:44 50.2 35.6 12.4 SE 16.8 29.65 57 -
18:49 49.8 35.4 18.6 SE 23.0 29.65 58 -
18:54 49.6 36.1 13.7 SSE 17.4 29.65 60 -
18:59 49.3 36.3 9.9 South 15.5 29.65 61 -
19:04 48.9 36.5 12.4 SSE 13.0 29.65 62 -
19:09 49.1 36.5 14.9 South 19.9 29.65 62 -
19:14 49.3 36.5 16.8 South 20.5 29.65 61 -
19:19 49.3 36.5 23.0 South 24.9 29.66 61 -
19:24 49.3 34.7 16.8 South 24.9 29.66 57 -
19:29 48.9 34.7 14.3 SSE 26.7 29.67 58 -
19:34 48.7 34.7 19.3 South 26.1 29.67 58 -
19:39 48.6 34.0 16.2 South 23.6 29.67 57 -
19:44 48.4 34.3 15.5 SSE 22.4 29.67 58 -
19:49 48.2 34.2 16.2 South 16.8 29.67 58 -
19:54 48.0 34.0 14.3 SSE 16.8 29.67 58 -
19:59 47.8 34.0 11.8 SSE 14.9 29.67 59 -
20:04 47.7 34.0 12.4 SSE 14.3 29.67 59 -
20:09 47.5 34.2 9.3 South 13.7 29.67 60 -
20:14 47.3 34.2 10.6 SSE 13.7 29.67 60 -
20:19 47.3 34.2 10.6 South 13.7 29.67 60 -
20:24 47.3 34.2 12.4 South 13.7 29.67 60 -
20:29 47.3 34.5 10.6 South 13.0 29.67 61 -
20:34 46.9 34.9 8.1 SSW 9.9 29.67 64 -
20:39 46.4 35.2 5.6 South 7.5 29.68 66 -
20:44 45.7 35.2 8.7 South 9.3 29.68 67 -
20:49 45.3 35.8 11.8 South 12.4 29.68 69 -
20:54 45.3 36.0 9.9 South 11.8 29.68 70 -
20:59 45.9 36.0 12.4 South 19.3 29.67 70 -
21:04 46.6 34.9 13.0 South 17.4 29.68 65 -
21:09 47.1 34.0 13.7 South 16.8 29.68 61 -
21:14 47.1 34.0 13.7 South 16.2 29.68 60 -
21:19 47.3 34.0 12.4 South 17.4 29.68 60 -
21:24 47.1 34.0 15.5 South 16.8 29.68 60 -
21:29 47.5 34.0 19.9 South 24.2 29.68 60 -
21:34 47.5 34.0 19.3 South 26.7 29.68 59 -
21:39 47.3 34.0 15.5 South 26.7 29.68 60 -
21:44 47.1 33.8 15.5 South 21.1 29.68 60 -
21:49 47.1 34.0 18.6 South 23.6 29.68 60 -
21:54 46.9 33.8 17.4 South 23.0 29.68 60 -
21:59 46.9 34.2 24.2 South 30.4 29.68 61 -
22:04 46.8 34.3 16.2 South 20.5 29.68 62 -
22:09 46.8 34.3 22.4 South 23.6 29.68 62 -
22:14 46.8 34.5 19.3 South 23.0 29.68 62 -
22:19 46.8 34.7 16.2 South 23.6 29.68 63 -
22:24 46.4 34.5 13.0 South 19.9 29.68 63 -
22:29 46.2 34.3 16.2 South 20.5 29.68 63 -
22:34 46.2 34.3 13.7 South 24.9 29.68 63 -
22:39 46.2 34.3 18.6 South 19.9 29.68 63 -
22:44 46.2 34.3 13.0 South 18.6 29.68 63 -
22:49 46.0 34.2 15.5 South 18.6 29.68 63 -
22:54 45.9 34.7 15.5 South 17.4 29.68 65 -
22:59 45.7 34.7 14.3 South 15.5 29.68 66 -
23:04 45.5 34.5 19.3 SSW 21.1 29.68 66 -
23:09 45.7 34.5 21.1 South 26.1 29.67 65 -
23:14 45.9 34.7 17.4 South 26.1 29.68 65 -
23:19 45.9 34.3 16.8 South 22.4 29.68 64 -
23:24 45.9 34.3 15.5 South 19.9 29.68 64 -
23:29 46.2 34.5 19.9 South 22.4 29.68 64 -
23:34 46.2 34.7 15.5 South 19.9 29.68 64 -
23:39 46.0 34.5 16.8 South 20.5 29.68 64 -
23:44 46.2 34.7 19.9 South 21.1 29.68 64 -
23:49 46.4 35.2 16.2 South 21.7 29.68 65 -

Download your copy of this data-set  from WeatherUnderground

Our weather-data as stored at Weather Underground

Forecast Image Free counters!
Spring
Spring